Weleetka, Oklahoma
Current Conditions -  °F | °C
As of 8:55 AM on Saturday 20 Dec 2014 (Local Time) from KOKM Reporting Station
Haze Haze  
Wind Chill: 40°   Ceiling: 2700
Heat Index: 40°   Visibility: 5mi
Dew Point: 38°   Wind: 3mph
Humidity: 93%   Direction: 140°SE
Pressure: 30.24"   Gusts: NA
Location:  35.34°N, 96.14°W
Report Text: KOKM 201455Z AUTO 14003KT 5SM BR OVC027 04/03 A3024 RMK AO2 T00420032
Loading
Personal Weather Stations






























Interactive Weather Map New forecast layout! Learn more

10-Day Weather Forecast

Advertisements
Track Severe Weather on mobile